createdAt,value
2018-12-26T00:01:49.219Z,22.23
2018-12-26T00:04:19.030Z,23.50
2018-12-26T00:06:48.734Z,24.13
2018-12-26T00:09:18.795Z,24.17
2018-12-26T00:11:48.537Z,24.00
2018-12-26T00:14:18.685Z,24.40
2018-12-26T00:16:48.491Z,23.20
2018-12-26T00:19:18.476Z,24.80
2018-12-26T00:21:48.433Z,24.03
2018-12-26T00:24:18.307Z,24.90
2018-12-26T00:26:48.128Z,23.63
2018-12-26T00:29:17.930Z,23.80
2018-12-26T00:31:47.627Z,23.47
2018-12-26T00:34:17.531Z,23.43
2018-12-26T00:36:47.506Z,24.13
2018-12-26T00:39:17.298Z,20.70
2018-12-26T00:41:47.091Z,20.50
2018-12-26T00:44:16.816Z,20.80
2018-12-26T00:46:46.530Z,21.57
2018-12-26T00:49:16.233Z,20.53
2018-12-26T00:51:46.437Z,20.73
2018-12-26T00:54:16.145Z,20.70
2018-12-26T00:56:45.862Z,21.43
2018-12-26T00:59:16.044Z,18.87
2018-12-26T01:01:45.883Z,18.13
2018-12-26T01:04:16.168Z,19.07
2018-12-26T01:06:46.050Z,19.73
2018-12-26T01:09:15.993Z,20.30
2018-12-26T01:11:45.810Z,20.13
2018-12-26T01:14:15.542Z,21.07
2018-12-26T01:16:45.292Z,20.97
2018-12-26T01:19:15.133Z,20.00
2018-12-26T01:21:45.092Z,20.23
2018-12-26T01:24:15.126Z,19.03
2018-12-26T01:26:45.088Z,18.87
2018-12-26T01:29:14.827Z,19.13
2018-12-26T01:31:44.623Z,18.60
2018-12-26T01:34:14.354Z,20.43
2018-12-26T01:36:44.066Z,19.87
2018-12-26T01:39:13.884Z,19.17
2018-12-26T01:41:43.674Z,18.90
2018-12-26T01:44:13.531Z,20.83
2018-12-26T01:46:43.487Z,21.70
2018-12-26T01:49:13.196Z,20.37
2018-12-26T01:51:43.504Z,20.40
2018-12-26T01:54:13.526Z,21.33
2018-12-26T01:56:43.310Z,20.67
2018-12-26T01:59:13.368Z,21.80
2018-12-26T02:01:43.090Z,21.43
2018-12-26T02:04:12.949Z,21.13
2018-12-26T02:06:42.755Z,19.90
2018-12-26T02:09:13.883Z,20.67
2018-12-26T02:11:44.044Z,21.07
2018-12-26T02:14:14.100Z,20.23
2018-12-26T02:16:43.863Z,20.37
2018-12-26T02:19:14.149Z,21.23
2018-12-26T02:21:44.279Z,21.27
2018-12-26T02:24:14.408Z,22.73
2018-12-26T02:26:45.479Z,21.93
2018-12-26T02:29:15.203Z,21.63
2018-12-26T02:31:44.993Z,21.60
2018-12-26T02:34:15.009Z,26.67
2018-12-26T02:36:45.137Z,28.17
2018-12-26T02:39:14.864Z,22.37
2018-12-26T02:41:44.870Z,22.47
2018-12-26T02:44:14.678Z,20.50
2018-12-26T02:46:44.695Z,20.57
2018-12-26T02:49:14.490Z,20.20
2018-12-26T02:55:13.815Z,20.43
2018-12-26T02:57:43.514Z,20.63
2018-12-26T03:00:13.762Z,19.77
2018-12-26T03:02:43.483Z,19.83
2018-12-26T03:05:13.219Z,19.70
2018-12-26T03:07:42.927Z,18.70
2018-12-26T03:10:12.734Z,20.43
2018-12-26T03:12:42.711Z,19.30
2018-12-26T03:15:13.027Z,18.83
2018-12-26T03:17:43.086Z,18.77
2018-12-26T03:20:12.868Z,19.57
2018-12-26T03:22:42.707Z,20.77
2018-12-26T03:25:12.498Z,18.70
2018-12-26T03:27:42.480Z,20.13
2018-12-26T03:30:12.196Z,18.47
2018-12-26T03:32:41.915Z,21.30
2018-12-26T03:35:11.791Z,24.73
2018-12-26T03:37:41.791Z,44.57
2018-12-26T03:40:11.938Z,31.90
2018-12-26T03:42:42.278Z,25.20
2018-12-26T03:45:12.486Z,23.83
2018-12-26T03:47:42.831Z,22.83
2018-12-26T03:50:12.845Z,20.17
2018-12-26T03:52:42.781Z,19.70
2018-12-26T03:55:12.878Z,19.33
2018-12-26T03:57:42.675Z,20.73
2018-12-26T04:00:12.712Z,22.33
2018-12-26T04:02:42.772Z,20.77
2018-12-26T04:05:12.889Z,19.70
2018-12-26T04:07:42.696Z,19.47
2018-12-26T04:10:15.969Z,18.77
2018-12-26T04:12:46.114Z,20.10
2018-12-26T04:15:16.337Z,19.30
2018-12-26T04:17:46.140Z,19.20
2018-12-26T04:20:16.011Z,18.57
2018-12-26T04:22:46.076Z,19.10
2018-12-26T04:25:16.121Z,17.80
2018-12-26T04:27:46.022Z,17.93
2018-12-26T04:30:16.066Z,18.93
2018-12-26T04:32:45.853Z,18.67
2018-12-26T04:35:15.675Z,19.03
2018-12-26T04:37:45.410Z,19.93
2018-12-26T04:40:15.123Z,18.90
2018-12-26T04:42:45.649Z,19.40
2018-12-26T04:45:15.374Z,20.07
2018-12-26T04:47:45.131Z,19.93
2018-12-26T04:50:14.840Z,20.03
2018-12-26T04:52:44.663Z,20.37
2018-12-26T04:55:14.373Z,18.67
2018-12-26T04:57:44.589Z,17.77
2018-12-26T05:00:14.298Z,19.30
2018-12-26T05:02:44.266Z,17.50
2018-12-26T05:05:14.313Z,16.10
2018-12-26T05:07:44.366Z,17.07
2018-12-26T05:10:14.165Z,17.30
2018-12-26T05:12:43.957Z,16.07
2018-12-26T05:15:13.909Z,17.40
2018-12-26T05:17:44.023Z,16.37
2018-12-26T05:20:13.814Z,16.80
2018-12-26T05:22:43.859Z,17.53
2018-12-26T05:25:13.665Z,17.17
2018-12-26T05:27:43.389Z,17.93
2018-12-26T05:30:13.178Z,18.07
2018-12-26T05:32:42.878Z,18.50
2018-12-26T05:35:12.777Z,17.57
2018-12-26T05:37:42.511Z,18.33
2018-12-26T05:40:12.290Z,20.20
2018-12-26T05:42:42.169Z,19.03
2018-12-26T05:45:12.142Z,19.10
2018-12-26T05:47:41.887Z,18.80
2018-12-26T05:50:11.582Z,19.43
2018-12-26T05:52:41.305Z,19.57
2018-12-26T05:55:11.028Z,18.83
2018-12-26T05:57:42.943Z,19.87
2018-12-26T06:00:12.673Z,19.73
2018-12-26T06:02:42.643Z,19.30
2018-12-26T06:05:12.378Z,21.03
2018-12-26T06:07:42.345Z,19.33
2018-12-26T06:10:12.137Z,19.20
2018-12-26T06:12:41.911Z,19.73
2018-12-26T06:15:12.055Z,20.03
2018-12-26T06:17:42.307Z,18.63
2018-12-26T06:20:12.031Z,21.67
2018-12-26T06:22:41.837Z,21.20
2018-12-26T06:25:11.616Z,17.43
2018-12-26T06:27:41.569Z,16.23
2018-12-26T06:30:11.306Z,16.40
2018-12-26T06:32:41.258Z,16.40
2018-12-26T06:35:11.218Z,16.77
2018-12-26T06:37:40.942Z,17.13
2018-12-26T06:40:10.987Z,17.97
2018-12-26T06:42:40.795Z,18.70
2018-12-26T06:45:10.545Z,18.60
2018-12-26T06:47:40.236Z,18.07
2018-12-26T06:50:10.034Z,17.33
2018-12-26T06:52:40.005Z,18.60
2018-12-26T06:55:10.000Z,18.07
2018-12-26T06:57:40.190Z,18.60
2018-12-26T07:00:10.250Z,19.53
2018-12-26T07:02:39.965Z,20.13
2018-12-26T07:05:09.930Z,20.83
2018-12-26T07:07:39.966Z,19.90
2018-12-26T07:10:09.838Z,21.17
2018-12-26T07:12:39.541Z,20.87
2018-12-26T07:15:09.387Z,19.97
2018-12-26T07:17:39.196Z,21.90
2018-12-26T07:20:09.049Z,19.60
2018-12-26T07:22:38.821Z,17.77
2018-12-26T07:25:08.634Z,18.93
2018-12-26T07:27:38.878Z,18.47
2018-12-26T07:30:08.690Z,19.70
2018-12-26T07:32:38.666Z,22.30
2018-12-26T07:35:08.676Z,25.37
2018-12-26T07:37:38.410Z,33.47
2018-12-26T07:40:09.250Z,23.40
2018-12-26T07:42:38.962Z,22.87
2018-12-26T07:45:09.497Z,24.80
2018-12-26T07:47:39.456Z,28.13
2018-12-26T07:50:09.291Z,26.47
2018-12-26T07:52:39.110Z,27.70
2018-12-26T07:55:09.026Z,21.63
2018-12-26T07:57:38.963Z,20.00
2018-12-26T08:00:09.322Z,28.47
2018-12-26T08:02:39.116Z,23.07
2018-12-26T08:05:09.553Z,29.03
2018-12-26T08:07:39.626Z,30.20
2018-12-26T08:10:12.843Z,30.87
2018-12-26T08:12:42.823Z,28.17
2018-12-26T08:15:12.835Z,34.40
2018-12-26T08:17:42.576Z,33.13
2018-12-26T08:20:12.667Z,31.40
2018-12-26T08:22:42.701Z,30.70
2018-12-26T08:25:12.846Z,26.27
2018-12-26T08:27:42.828Z,26.53
2018-12-26T08:30:13.058Z,26.70
2018-12-26T08:32:43.694Z,26.83
2018-12-26T08:35:13.823Z,24.33
2018-12-26T08:37:43.811Z,26.73
2018-12-26T08:40:13.730Z,25.03
2018-12-26T08:42:43.798Z,26.23
2018-12-26T08:45:13.842Z,25.50
2018-12-26T08:47:43.827Z,25.07
2018-12-26T08:50:13.644Z,24.43
2018-12-26T08:52:43.403Z,22.97
2018-12-26T08:55:15.443Z,23.40
2018-12-26T08:57:45.651Z,23.77
2018-12-26T09:00:15.418Z,21.43
2018-12-26T09:02:45.130Z,20.90
2018-12-26T09:05:14.929Z,20.47
2018-12-26T09:07:45.036Z,20.23
2018-12-26T09:10:15.177Z,21.33
2018-12-26T09:12:44.966Z,19.40
2018-12-26T09:15:14.721Z,19.63
2018-12-26T09:17:44.822Z,19.60
2018-12-26T09:20:14.652Z,17.63
2018-12-26T09:22:44.693Z,18.43
2018-12-26T09:25:14.586Z,16.47
2018-12-26T09:27:44.549Z,20.37
2018-12-26T09:30:14.623Z,19.57
2018-12-26T09:32:44.368Z,20.33
2018-12-26T09:35:14.410Z,17.70
2018-12-26T09:37:44.432Z,17.23
2018-12-26T09:40:14.565Z,18.30
2018-12-26T09:42:44.398Z,19.00
2018-12-26T09:45:14.610Z,18.03
2018-12-26T09:47:44.425Z,17.23
2018-12-26T09:50:14.307Z,17.70
2018-12-26T09:52:44.157Z,18.17
2018-12-26T09:55:13.942Z,18.40
2018-12-26T09:57:43.731Z,17.33
2018-12-26T10:00:13.726Z,18.63
2018-12-26T10:02:43.447Z,19.17
2018-12-26T10:05:13.257Z,20.57
2018-12-26T10:07:43.117Z,19.40
2018-12-26T10:10:13.043Z,17.97
2018-12-26T10:12:42.787Z,18.53
2018-12-26T10:15:13.140Z,26.10
2018-12-26T10:17:42.846Z,18.40
2018-12-26T10:20:12.668Z,17.20
2018-12-26T10:22:42.768Z,17.53
2018-12-26T10:25:12.575Z,18.03
2018-12-26T10:27:42.374Z,18.97
2018-12-26T10:30:12.449Z,19.23
2018-12-26T10:32:42.407Z,17.63
2018-12-26T10:35:12.314Z,16.87
2018-12-26T10:37:42.122Z,16.60
2018-12-26T10:40:12.458Z,16.40
2018-12-26T10:42:42.259Z,17.10
2018-12-26T10:45:12.270Z,18.70
2018-12-26T10:47:42.266Z,17.53
2018-12-26T10:50:12.095Z,17.00
2018-12-26T10:52:41.824Z,24.93
2018-12-26T10:55:11.685Z,22.27
2018-12-26T10:57:41.620Z,21.87
2018-12-26T11:00:13.339Z,20.13
2018-12-26T11:02:43.262Z,17.90
2018-12-26T11:05:13.057Z,18.87
2018-12-26T11:07:45.504Z,21.37
2018-12-26T11:10:15.391Z,18.30
2018-12-26T11:12:45.093Z,21.20
2018-12-26T11:15:14.957Z,16.63
2018-12-26T11:17:45.294Z,15.00
2018-12-26T11:20:16.658Z,14.77
2018-12-26T11:22:46.613Z,15.80
2018-12-26T11:25:16.383Z,15.33
2018-12-26T11:27:46.151Z,14.03
2018-12-26T11:30:16.075Z,15.87
2018-12-26T11:32:45.778Z,15.27
2018-12-26T11:35:15.660Z,16.10
2018-12-26T11:37:45.830Z,15.17
2018-12-26T11:40:15.669Z,18.47
2018-12-26T11:42:45.539Z,15.67
2018-12-26T11:45:15.551Z,14.67
2018-12-26T11:47:45.270Z,15.20
2018-12-26T11:50:15.494Z,14.80
2018-12-26T11:52:45.216Z,15.53
2018-12-26T11:55:15.023Z,17.70
2018-12-26T11:57:44.733Z,16.97
2018-12-26T12:00:14.589Z,16.53
2018-12-26T12:02:44.519Z,16.90
2018-12-26T12:05:14.367Z,16.27
2018-12-26T12:07:44.082Z,14.63
2018-12-26T12:10:13.914Z,15.10
2018-12-26T12:12:43.705Z,16.00
2018-12-26T12:15:13.593Z,15.47
2018-12-26T12:17:43.481Z,16.40
2018-12-26T12:20:13.566Z,15.87
2018-12-26T12:22:43.618Z,16.03
2018-12-26T12:25:13.610Z,16.10
2018-12-26T12:27:43.915Z,16.07
2018-12-26T12:30:18.884Z,16.23
2018-12-26T12:32:52.159Z,15.90
2018-12-26T12:35:21.954Z,15.53
2018-12-26T12:37:51.860Z,15.80
2018-12-26T12:40:21.735Z,14.70
2018-12-26T12:42:51.835Z,14.97
2018-12-26T12:45:21.951Z,15.20
2018-12-26T12:47:51.963Z,16.50
2018-12-26T12:50:21.802Z,16.40
2018-12-26T12:52:51.505Z,17.13
2018-12-26T12:55:21.227Z,15.43
2018-12-26T12:57:51.227Z,15.20
2018-12-26T13:00:21.096Z,15.47
2018-12-26T13:02:51.190Z,15.33
2018-12-26T13:05:20.932Z,15.47
2018-12-26T13:07:50.958Z,16.07
2018-12-26T13:10:23.758Z,14.93
2018-12-26T13:12:53.613Z,15.60
2018-12-26T13:15:23.351Z,16.30
2018-12-26T13:17:53.582Z,15.50
2018-12-26T13:20:23.717Z,15.77
2018-12-26T13:22:53.438Z,14.97
2018-12-26T13:25:23.413Z,15.23
2018-12-26T13:27:53.486Z,16.03
2018-12-26T13:30:23.651Z,15.73
2018-12-26T13:32:53.691Z,16.00
2018-12-26T13:35:23.389Z,16.20
2018-12-26T13:37:53.146Z,16.43
2018-12-26T13:40:22.853Z,15.87
2018-12-26T13:42:52.728Z,14.17
2018-12-26T13:45:22.526Z,15.63
2018-12-26T13:47:52.297Z,17.43
2018-12-26T13:50:22.071Z,17.73
2018-12-26T13:52:51.970Z,16.20
2018-12-26T13:55:21.753Z,17.20
2018-12-26T13:57:51.515Z,16.00
2018-12-26T14:00:21.537Z,15.63
2018-12-26T14:02:51.653Z,15.17
2018-12-26T14:05:21.817Z,16.37
2018-12-26T14:07:51.783Z,16.77
2018-12-26T14:10:21.979Z,17.03
2018-12-26T14:12:51.702Z,16.80
2018-12-26T14:15:21.398Z,16.20
2018-12-26T14:17:51.430Z,16.63
2018-12-26T14:20:21.323Z,17.67
2018-12-26T14:22:51.184Z,22.40
2018-12-26T14:25:20.891Z,18.87
2018-12-26T14:27:50.657Z,17.23
2018-12-26T14:30:20.407Z,17.07
2018-12-26T14:32:53.289Z,17.47
2018-12-26T14:35:23.072Z,16.60
2018-12-26T14:37:53.688Z,18.63
2018-12-26T14:40:23.526Z,16.83
2018-12-26T14:42:53.337Z,17.73
2018-12-26T14:45:23.201Z,17.97
2018-12-26T14:47:53.119Z,21.47
2018-12-26T14:50:22.970Z,57.17
2018-12-26T14:52:53.292Z,45.00
2018-12-26T14:55:23.237Z,63.43
2018-12-26T14:57:53.051Z,51.67
2018-12-26T15:00:23.197Z,43.23
2018-12-26T15:02:52.993Z,58.27
2018-12-26T15:05:22.682Z,34.73
2018-12-26T15:07:52.683Z,29.20
2018-12-26T15:10:22.469Z,49.83
2018-12-26T15:12:52.187Z,55.77
2018-12-26T15:15:21.886Z,22.23
2018-12-26T15:17:51.617Z,28.57
2018-12-26T15:20:21.312Z,38.23
2018-12-26T15:22:51.564Z,28.07
2018-12-26T15:25:21.304Z,17.70
2018-12-26T15:27:51.305Z,19.33
2018-12-26T15:30:28.418Z,17.87
2018-12-26T15:32:52.598Z,17.57
2018-12-26T15:35:22.378Z,21.40
2018-12-26T15:37:52.121Z,20.07
2018-12-26T15:40:22.480Z,18.90
2018-12-26T15:42:52.457Z,18.50
2018-12-26T15:45:22.178Z,20.27
2018-12-26T15:47:57.778Z,34.03
2018-12-26T15:50:27.819Z,22.17
2018-12-26T15:52:57.529Z,20.87
2018-12-26T15:55:27.307Z,22.53
2018-12-26T15:57:57.491Z,27.77
2018-12-26T16:00:27.197Z,25.97
2018-12-26T16:02:57.218Z,26.23
2018-12-26T16:05:27.266Z,25.47
2018-12-26T16:07:57.058Z,23.93
2018-12-26T16:10:26.782Z,23.77
2018-12-26T16:12:56.504Z,31.97
2018-12-26T16:15:26.548Z,28.10
2018-12-26T16:17:56.279Z,22.47
2018-12-26T16:20:26.174Z,23.97
2018-12-26T16:22:56.332Z,26.00
2018-12-26T16:25:26.026Z,25.47
2018-12-26T16:27:56.126Z,23.83
2018-12-26T16:30:25.941Z,22.50
2018-12-26T16:32:56.023Z,24.50
2018-12-26T16:35:25.928Z,23.07
2018-12-26T16:38:01.475Z,22.37
2018-12-26T16:40:27.798Z,24.60
2018-12-26T16:42:57.644Z,24.90
2018-12-26T16:45:27.482Z,22.73
2018-12-26T16:47:57.335Z,23.27
2018-12-26T16:50:27.456Z,24.23
2018-12-26T16:52:57.679Z,20.53
2018-12-26T16:55:27.545Z,20.20
2018-12-26T16:57:58.646Z,20.90
2018-12-26T17:00:28.638Z,27.27
2018-12-26T17:02:58.870Z,39.93
2018-12-26T17:05:28.756Z,29.73
2018-12-26T17:07:58.920Z,31.80
2018-12-26T17:10:28.958Z,31.10
2018-12-26T17:12:59.191Z,26.00
2018-12-26T17:15:29.102Z,21.87
2018-12-26T17:17:59.479Z,24.13
2018-12-26T17:20:29.340Z,26.33
2018-12-26T17:22:59.571Z,25.90
2018-12-26T17:25:29.635Z,28.23
2018-12-26T17:27:59.525Z,26.17
2018-12-26T17:30:30.144Z,24.10
2018-12-26T17:33:00.746Z,22.13
2018-12-26T17:35:31.438Z,28.63
2018-12-26T17:38:01.405Z,27.47
2018-12-26T17:40:31.327Z,27.57
2018-12-26T17:43:01.058Z,27.90
2018-12-26T17:45:32.334Z,48.03
2018-12-26T17:48:02.689Z,40.50
2018-12-26T17:50:47.193Z,29.57
2018-12-26T17:53:39.682Z,25.17
2018-12-26T17:56:13.778Z,26.13
2018-12-26T17:59:23.290Z,31.30
2018-12-26T18:01:57.989Z,38.17
2018-12-26T18:04:29.310Z,52.37
2018-12-26T18:06:59.411Z,45.00
2018-12-26T18:09:29.579Z,127.97
2018-12-26T18:12:11.165Z,86.73
2018-12-26T18:14:31.331Z,41.77
2018-12-26T18:17:01.215Z,31.03
2018-12-26T18:19:31.375Z,28.90
2018-12-26T18:22:01.326Z,29.53
2018-12-26T18:24:31.450Z,28.93
2018-12-26T18:27:01.712Z,35.13
2018-12-26T18:29:31.925Z,44.63
2018-12-26T18:32:01.966Z,40.90
2018-12-26T18:34:32.149Z,35.97
2018-12-26T18:37:02.041Z,34.10
2018-12-26T18:39:32.078Z,34.03
2018-12-26T18:42:01.799Z,33.33
2018-12-26T18:44:31.650Z,30.63
2018-12-26T18:47:01.673Z,30.27
2018-12-26T18:49:31.636Z,32.77
2018-12-26T18:52:01.418Z,45.20
2018-12-26T18:54:31.146Z,54.97
2018-12-26T18:57:00.918Z,95.73
2018-12-26T18:59:30.992Z,103.43
2018-12-26T19:02:01.342Z,51.20
2018-12-26T19:04:31.164Z,38.23
2018-12-26T19:07:00.999Z,32.03
2018-12-26T19:09:31.299Z,31.53
2018-12-26T19:12:01.365Z,31.70
2018-12-26T19:14:31.586Z,27.93
2018-12-26T19:17:01.930Z,109.07
2018-12-26T19:19:31.654Z,78.60
2018-12-26T19:22:01.410Z,51.83
2018-12-26T19:24:37.723Z,35.37
2018-12-26T19:27:07.503Z,35.77
2018-12-26T19:29:37.462Z,33.73
2018-12-26T19:32:07.306Z,35.57
2018-12-26T19:34:37.158Z,34.70
2018-12-26T19:37:06.970Z,32.37
2018-12-26T19:39:37.057Z,29.40
2018-12-26T19:42:07.203Z,29.07
2018-12-26T19:44:36.998Z,32.00
2018-12-26T19:47:06.742Z,35.40
2018-12-26T19:49:36.487Z,38.23
2018-12-26T19:52:06.261Z,31.57
2018-12-26T19:54:35.982Z,29.60
2018-12-26T19:57:06.218Z,31.43
2018-12-26T19:59:36.210Z,28.40
2018-12-26T20:06:32.319Z,32.30
2018-12-26T20:09:02.078Z,30.43
2018-12-26T20:11:32.345Z,44.77
2018-12-26T20:14:02.107Z,36.67
2018-12-26T20:16:32.130Z,36.37
2018-12-26T20:19:02.189Z,41.60
2018-12-26T20:21:32.046Z,43.07
2018-12-26T20:24:01.787Z,37.23
2018-12-26T20:26:31.582Z,32.43
2018-12-26T20:29:01.511Z,30.47
2018-12-26T20:31:31.251Z,29.40
2018-12-26T20:34:01.040Z,32.93
2018-12-26T20:36:31.034Z,34.33
2018-12-26T20:39:00.950Z,36.67
2018-12-26T20:41:30.791Z,39.97
2018-12-26T20:44:01.021Z,115.80
2018-12-26T20:46:31.369Z,79.87
2018-12-26T20:49:01.107Z,40.40
2018-12-26T20:51:30.883Z,31.50
2018-12-26T20:54:00.972Z,33.60
2018-12-26T20:56:31.106Z,70.63
2018-12-26T20:59:01.418Z,33.47
2018-12-26T21:01:31.547Z,26.87
2018-12-26T21:04:01.342Z,31.73
2018-12-26T21:06:31.434Z,36.57
2018-12-26T21:09:02.160Z,30.97
2018-12-26T21:11:31.879Z,30.20
2018-12-26T21:14:01.705Z,33.43
2018-12-26T21:16:31.517Z,33.40
2018-12-26T21:19:01.342Z,31.67
2018-12-26T21:21:31.780Z,31.87
2018-12-26T21:24:01.807Z,34.70
2018-12-26T21:26:31.869Z,33.83
2018-12-26T21:29:01.917Z,34.83
2018-12-26T21:31:31.866Z,36.50
2018-12-26T21:34:03.222Z,31.53
2018-12-26T21:36:33.234Z,32.73
2018-12-26T21:39:04.417Z,33.03
2018-12-26T21:41:34.194Z,32.70
2018-12-26T21:44:04.358Z,32.37
2018-12-26T21:46:34.189Z,32.43
2018-12-26T21:49:04.376Z,34.10
2018-12-26T21:51:34.456Z,35.27
2018-12-26T21:54:04.495Z,36.13
2018-12-26T21:56:34.406Z,28.30
2018-12-26T21:59:04.278Z,26.53
2018-12-26T22:01:34.083Z,23.00
2018-12-26T22:04:03.970Z,23.97
2018-12-26T22:06:34.304Z,28.50
2018-12-26T22:09:06.287Z,40.93
2018-12-26T22:11:36.202Z,54.70
2018-12-26T22:14:06.335Z,35.37
2018-12-26T22:16:36.398Z,27.50
2018-12-26T22:19:06.481Z,28.83
2018-12-26T22:21:36.562Z,22.60
2018-12-26T22:24:06.799Z,30.90
2018-12-26T22:26:43.257Z,32.07
2018-12-26T22:29:08.275Z,28.23
2018-12-26T22:31:38.359Z,31.53
2018-12-26T22:34:08.233Z,27.60
2018-12-26T22:36:38.090Z,33.63
2018-12-26T22:39:07.966Z,24.40
2018-12-26T22:41:37.766Z,24.53
2018-12-26T22:44:07.864Z,32.23
2018-12-26T22:46:37.663Z,32.00
2018-12-26T22:49:08.483Z,29.20
2018-12-26T22:51:42.020Z,26.33
2018-12-26T22:54:10.250Z,22.33
2018-12-26T22:56:40.073Z,20.77
2018-12-26T22:59:10.224Z,20.70
2018-12-26T23:01:40.895Z,20.00
2018-12-26T23:04:10.680Z,19.60
2018-12-26T23:06:40.675Z,17.87
2018-12-26T23:09:10.610Z,18.90
2018-12-26T23:11:40.715Z,20.20
2018-12-26T23:14:10.866Z,17.90
2018-12-26T23:16:40.899Z,16.43
2018-12-26T23:19:10.710Z,17.97
2018-12-26T23:21:40.782Z,19.40
2018-12-26T23:24:10.565Z,21.43
2018-12-26T23:26:40.606Z,20.43
2018-12-26T23:29:10.401Z,22.97
2018-12-26T23:31:40.370Z,18.60
2018-12-26T23:34:10.098Z,20.80
2018-12-26T23:36:39.964Z,22.17
2018-12-26T23:39:10.012Z,18.07
2018-12-26T23:41:39.863Z,16.93
2018-12-26T23:44:09.847Z,18.63
2018-12-26T23:46:40.078Z,16.73
2018-12-26T23:49:09.906Z,15.97
2018-12-26T23:51:39.693Z,19.30
2018-12-26T23:54:09.433Z,20.60
2018-12-26T23:56:39.285Z,36.40
2018-12-26T23:59:09.929Z,51.53
